Time;durP1;ratioP1;P1;durP2;ratioP2;P2;SDS_P1;SDS_P2;PMS_P1;PMS_P2;Temp;Humidity;BMP_temperature;BMP_pressure;BME280_temperature;BME280_humidity;BME280_pressure;Samples;Min_cycle;Max_cycle;Signal;HPM_P1;HPM_P2
2021/06/30 00:02:54;;;;;;;3.57;1.83;;;;;;;;;;10406115;28;20213;-73
2021/06/30 00:08:02;;;;;;;2.90;1.80;;;;;;;;;;10405878;28;20201;-71
2021/06/30 00:13:11;;;;;;;3.33;1.90;;;;;;;;;;10406809;28;20256;-72
2021/06/30 00:18:19;;;;;;;3.80;2.00;;;;;;;;;;10401628;28;20275;-72
2021/06/30 00:23:26;;;;;;;3.43;1.80;;;;;;;;;;10405285;28;20253;-71
2021/06/30 00:28:35;;;;;;;4.23;2.10;;;;;;;;;;10404544;28;20240;-70
2021/06/30 00:33:42;;;;;;;2.60;1.80;;;;;;;;;;10396599;28;20213;-70
2021/06/30 00:38:50;;;;;;;3.27;1.77;;;;;;;;;;10405271;28;20205;-71
2021/06/30 00:43:59;;;;;;;2.80;1.77;;;;;;;;;;10404992;28;20220;-72
2021/06/30 00:49:02;;;;;;;3.83;2.07;;;;;;;;;;10405796;28;20202;-72
2021/06/30 00:54:05;;;;;;;4.10;1.80;;;;;;;;;;10404959;28;20190;-71
2021/06/30 00:59:14;;;;;;;5.83;1.87;;;;;;;;;;10400943;28;20233;-72
2021/06/30 01:04:21;;;;;;;3.43;1.80;;;;;;;;;;10403288;28;20197;-73
2021/06/30 01:09:29;;;;;;;2.50;1.60;;;;;;;;;;10405198;28;20225;-73
2021/06/30 01:14:34;;;;;;;3.37;1.70;;;;;;;;;;10404153;28;20281;-71
2021/06/30 01:19:38;;;;;;;4.07;2.00;;;;;;;;;;10403415;28;20367;-72
2021/06/30 01:24:49;;;;;;;2.93;1.73;;;;;;;;;;10403104;28;20209;-73
2021/06/30 01:29:57;;;;;;;3.17;1.57;;;;;;;;;;10404209;28;20215;-72
2021/06/30 01:35:05;;;;;;;5.13;1.87;;;;;;;;;;10396440;28;20219;-72
2021/06/30 01:40:14;;;;;;;4.83;2.00;;;;;;;;;;10402869;28;20213;-72
2021/06/30 01:45:22;;;;;;;2.93;2.00;;;;;;;;;;10403652;28;20193;-72
2021/06/30 01:50:29;;;;;;;4.57;2.00;;;;;;;;;;10402490;28;20217;-71
2021/06/30 01:55:38;;;;;;;4.50;2.30;;;;;;;;;;10403591;28;20194;-72
2021/06/30 02:00:41;;;;;;;3.40;2.23;;;;;;;;;;10400573;28;20221;-70
2021/06/30 02:05:43;;;;;;;7.20;2.40;;;;;;;;;;10401795;28;20530;-71
2021/06/30 02:10:52;;;;;;;3.80;2.50;;;;;;;;;;10400944;28;20250;-72
2021/06/30 02:15:59;;;;;;;4.20;2.00;;;;;;;;;;10402355;28;20224;-71
2021/06/30 02:21:08;;;;;;;3.23;2.00;;;;;;;;;;10396600;28;20237;-72
2021/06/30 02:26:17;;;;;;;3.33;1.67;;;;;;;;;;10399874;28;20623;-71
2021/06/30 02:31:25;;;;;;;4.77;2.00;;;;;;;;;;10402916;28;20225;-72
2021/06/30 02:36:32;;;;;;;3.33;1.90;;;;;;;;;;10403501;28;20541;-71
2021/06/30 02:41:41;;;;;;;3.30;1.60;;;;;;;;;;10404355;28;20571;-70
2021/06/30 02:46:49;;;;;;;2.67;1.67;;;;;;;;;;10411369;28;20193;-73
2021/06/30 02:51:56;;;;;;;2.43;1.50;;;;;;;;;;10404884;28;20240;-70
2021/06/30 02:57:05;;;;;;;2.70;1.30;;;;;;;;;;10409849;28;20252;-72
2021/06/30 03:02:07;;;;;;;3.43;1.60;;;;;;;;;;10405604;28;20214;-71
2021/06/30 03:07:22;;;;;;;1.17;1.03;;;;;;;;;;10407365;28;20186;-73
2021/06/30 03:12:34;;;;;;;3.37;0.97;;;;;;;;;;10409115;28;20604;-71
2021/06/30 03:17:42;;;;;;;3.50;0.83;;;;;;;;;;10407176;28;20224;-71
2021/06/30 03:22:49;;;;;;;0.90;0.70;;;;;;;;;;10401173;28;20206;-71
2021/06/30 03:27:58;;;;;;;0.93;0.70;;;;;;;;;;10408444;28;20197;-71
2021/06/30 03:33:06;;;;;;;0.73;0.30;;;;;;;;;;10406591;28;20217;-71
2021/06/30 03:38:13;;;;;;;0.60;0.60;;;;;;;;;;10404843;28;20280;-70
2021/06/30 03:43:22;;;;;;;0.40;0.40;;;;;;;;;;10408164;28;20327;-70
2021/06/30 03:48:29;;;;;;;0.47;0.30;;;;;;;;;;10405471;28;20232;-71
2021/06/30 03:53:37;;;;;;;0.63;0.30;;;;;;;;;;10407031;28;20279;-71
2021/06/30 03:58:46;;;;;;;0.43;0.40;;;;;;;;;;10401766;28;20273;-69
2021/06/30 04:03:55;;;;;;;0.77;0.37;;;;;;;;;;10404105;28;20194;-71
2021/06/30 04:09:02;;;;;;;0.67;0.30;;;;;;;;;;10401646;28;20181;-72
2021/06/30 04:14:11;;;;;;;0.30;0.30;;;;;;;;;;10407220;28;20267;-70
2021/06/30 04:19:38;;;;;;;0.77;0.40;;;;;;;;;;10405859;28;21670;-71
2021/06/30 04:25:06;;;;;;;0.63;0.27;;;;;;;;;;10406459;28;20210;-72
2021/06/30 04:30:16;;;;;;;0.33;0.30;;;;;;;;;;10406344;28;20206;-71
2021/06/30 04:35:23;;;;;;;1.33;0.30;;;;;;;;;;10404587;28;20194;-70
2021/06/30 04:40:30;;;;;;;0.30;0.20;;;;;;;;;;10404214;28;20221;-70
2021/06/30 04:45:40;;;;;;;0.60;0.30;;;;;;;;;;10406662;28;20189;-71
2021/06/30 04:50:47;;;;;;;0.40;0.40;;;;;;;;;;10403830;28;20562;-71
2021/06/30 04:55:55;;;;;;;0.70;0.40;;;;;;;;;;10404615;28;20616;-72
2021/06/30 05:01:04;;;;;;;0.70;0.40;;;;;;;;;;10396613;28;20755;-72
2021/06/30 05:06:12;;;;;;;1.60;0.40;;;;;;;;;;10401402;28;20193;-70
2021/06/30 05:11:20;;;;;;;0.47;0.30;;;;;;;;;;10404448;28;20217;-73
2021/06/30 05:16:29;;;;;;;0.20;0.20;;;;;;;;;;10399553;28;20202;-71
2021/06/30 05:21:36;;;;;;;0.40;0.40;;;;;;;;;;10399734;28;20237;-71
2021/06/30 05:26:44;;;;;;;3.30;0.50;;;;;;;;;;10403767;28;20200;-72
2021/06/30 05:31:52;;;;;;;1.57;0.30;;;;;;;;;;10404733;28;20804;-73
2021/06/30 05:37:00;;;;;;;0.30;0.30;;;;;;;;;;10403791;28;20246;-70
2021/06/30 05:42:08;;;;;;;2.10;0.50;;;;;;;;;;10403641;28;20609;-72
2021/06/30 05:47:16;;;;;;;0.13;0.13;;;;;;;;;;10403468;28;20269;-70
2021/06/30 05:52:24;;;;;;;1.10;0.40;;;;;;;;;;10396287;28;20210;-69
2021/06/30 05:57:31;;;;;;;1.40;0.40;;;;;;;;;;10402661;28;20189;-69
2021/06/30 06:02:40;;;;;;;1.70;0.40;;;;;;;;;;10403126;28;20298;-71
2021/06/30 06:07:48;;;;;;;3.33;0.80;;;;;;;;;;10383938;28;20192;-70
2021/06/30 06:12:55;;;;;;;3.60;0.60;;;;;;;;;;10397070;28;20542;-71
2021/06/30 06:18:06;;;;;;;0.40;0.20;;;;;;;;;;10395548;28;20213;-71
2021/06/30 06:23:14;;;;;;;0.60;0.33;;;;;;;;;;10395847;28;20233;-71
2021/06/30 06:28:21;;;;;;;0.70;0.47;;;;;;;;;;10402739;28;20291;-71
2021/06/30 06:33:30;;;;;;;0.57;0.30;;;;;;;;;;10402319;28;20595;-71
2021/06/30 06:38:38;;;;;;;1.20;0.40;;;;;;;;;;10403939;28;20221;-69
2021/06/30 06:43:46;;;;;;;0.20;0.20;;;;;;;;;;10402365;28;20217;-72
2021/06/30 06:48:55;;;;;;;0.30;0.30;;;;;;;;;;10401783;28;20273;-71
2021/06/30 06:54:02;;;;;;;0.67;0.30;;;;;;;;;;10403122;28;20208;-71
2021/06/30 06:59:10;;;;;;;1.60;0.53;;;;;;;;;;10400988;28;20281;-71
2021/06/30 07:04:19;;;;;;;0.50;0.40;;;;;;;;;;10404075;28;20685;-72
2021/06/30 07:09:27;;;;;;;0.80;0.43;;;;;;;;;;10408591;28;20283;-72
2021/06/30 07:14:34;;;;;;;0.40;0.33;;;;;;;;;;10405522;28;20204;-71
2021/06/30 07:19:43;;;;;;;0.80;0.50;;;;;;;;;;10402599;28;20228;-72
2021/06/30 07:24:50;;;;;;;1.57;0.43;;;;;;;;;;10406317;28;20298;-74
2021/06/30 07:29:58;;;;;;;0.30;0.20;;;;;;;;;;10406354;28;20205;-70
2021/06/30 07:35:07;;;;;;;0.40;0.30;;;;;;;;;;10402522;28;20202;-72
2021/06/30 07:40:15;;;;;;;0.30;0.30;;;;;;;;;;10403571;28;20665;-72
2021/06/30 07:45:22;;;;;;;0.40;0.40;;;;;;;;;;10400281;28;20193;-70
2021/06/30 07:50:26;;;;;;;0.53;0.53;;;;;;;;;;10405978;28;20221;-71
2021/06/30 07:55:29;;;;;;;0.97;0.40;;;;;;;;;;10406737;28;20623;-71
2021/06/30 08:00:32;;;;;;;0.43;0.40;;;;;;;;;;10406781;28;20224;-71
2021/06/30 08:05:35;;;;;;;0.30;0.30;;;;;;;;;;10406034;28;20194;-72
2021/06/30 08:10:40;;;;;;;0.52;0.52;;;;;;;;;;10403375;28;20678;-71
2021/06/30 08:15:43;;;;;;;1.40;0.57;;;;;;;;;;10404596;28;20209;-71
2021/06/30 08:20:50;;;;;;;0.57;0.50;;;;;;;;;;10401467;28;20206;-71
2021/06/30 08:25:53;;;;;;;1.20;0.43;;;;;;;;;;10402261;28;20193;-71
2021/06/30 08:30:59;;;;;;;0.82;0.45;;;;;;;;;;10420930;28;20280;-71
2021/06/30 08:36:03;;;;;;;0.57;0.57;;;;;;;;;;10404343;28;20197;-71
2021/06/30 08:41:05;;;;;;;0.90;0.60;;;;;;;;;;10401954;28;20638;-71
2021/06/30 08:46:09;;;;;;;0.60;0.60;;;;;;;;;;10402445;28;20190;-70
2021/06/30 08:51:20;;;;;;;0.60;0.60;;;;;;;;;;10401215;28;20681;-71
2021/06/30 08:56:31;;;;;;;1.27;0.65;;;;;;;;;;10402644;28;20202;-71
2021/06/30 09:01:34;;;;;;;0.65;0.65;;;;;;;;;;10399821;28;20217;-71
2021/06/30 09:06:38;;;;;;;1.10;0.50;;;;;;;;;;10394130;28;20296;-71
2021/06/30 09:11:41;;;;;;;1.17;0.82;;;;;;;;;;10400764;28;20221;-69
2021/06/30 09:17:10;;;;;;;0.50;0.50;;;;;;;;;;10388094;28;20247;-72
2021/06/30 09:22:14;;;;;;;0.63;0.60;;;;;;;;;;10395137;28;20206;-71
2021/06/30 09:27:18;;;;;;;0.60;0.60;;;;;;;;;;10401301;28;20272;-71
2021/06/30 09:32:20;;;;;;;2.33;0.80;;;;;;;;;;10403384;28;20209;-70
2021/06/30 09:37:29;;;;;;;0.40;0.38;;;;;;;;;;10403055;28;20689;-71
2021/06/30 09:42:32;;;;;;;0.65;0.50;;;;;;;;;;10391190;28;20708;-71
2021/06/30 09:47:42;;;;;;;0.57;0.50;;;;;;;;;;10393446;28;20198;-71
2021/06/30 09:52:46;;;;;;;1.38;0.57;;;;;;;;;;10392490;28;20321;-72
2021/06/30 09:57:49;;;;;;;1.08;0.63;;;;;;;;;;10391877;28;20272;-71
2021/06/30 10:02:52;;;;;;;0.82;0.70;;;;;;;;;;10406371;28;20214;-70
2021/06/30 10:08:08;;;;;;;0.50;0.50;;;;;;;;;;10395452;28;20262;-72
2021/06/30 10:13:11;;;;;;;1.02;0.80;;;;;;;;;;10390214;28;20896;-71
2021/06/30 10:18:14;;;;;;;2.58;0.60;;;;;;;;;;10394911;28;20292;-71
2021/06/30 10:23:18;;;;;;;1.35;0.70;;;;;;;;;;10400595;28;20299;-72
2021/06/30 10:28:21;;;;;;;1.15;0.60;;;;;;;;;;10396080;28;20205;-71
2021/06/30 10:33:29;;;;;;;0.50;0.50;;;;;;;;;;10401018;28;20217;-72
2021/06/30 10:38:47;;;;;;;1.02;0.50;;;;;;;;;;10396162;28;20198;-71
2021/06/30 10:44:04;;;;;;;0.50;0.50;;;;;;;;;;10399248;28;20217;-71
2021/06/30 10:49:26;;;;;;;0.50;0.40;;;;;;;;;;10404313;28;20209;-71
2021/06/30 10:54:36;;;;;;;1.65;0.60;;;;;;;;;;10400559;28;20251;-71
2021/06/30 10:59:53;;;;;;;1.25;0.90;;;;;;;;;;10403626;28;20213;-71
2021/06/30 11:04:57;;;;;;;0.68;0.68;;;;;;;;;;10401405;28;20225;-72
2021/06/30 11:10:21;;;;;;;1.33;0.77;;;;;;;;;;10398980;28;20296;-72
2021/06/30 11:15:39;;;;;;;1.05;0.50;;;;;;;;;;10402461;28;20217;-72
2021/06/30 11:20:46;;;;;;;1.77;0.50;;;;;;;;;;10404588;28;20226;-72
2021/06/30 11:25:50;;;;;;;1.63;0.40;;;;;;;;;;10404630;28;20626;-71
2021/06/30 11:30:52;;;;;;;1.40;0.68;;;;;;;;;;10397944;28;20263;-72
2021/06/30 11:36:03;;;;;;;2.50;1.23;;;;;;;;;;10419242;28;20308;-72
2021/06/30 11:41:09;;;;;;;0.50;0.50;;;;;;;;;;10404009;28;20217;-71
2021/06/30 11:46:14;;;;;;;0.77;0.40;;;;;;;;;;10405821;28;20202;-71
2021/06/30 11:51:18;;;;;;;1.60;0.70;;;;;;;;;;10399363;28;20203;-71
2021/06/30 11:56:37;;;;;;;2.47;0.47;;;;;;;;;;10404154;28;20577;-72
2021/06/30 12:01:40;;;;;;;1.33;0.50;;;;;;;;;;10400221;28;20219;-70
2021/06/30 12:06:45;;;;;;;1.37;0.50;;;;;;;;;;10396818;28;20229;-71
2021/06/30 12:11:51;;;;;;;0.93;0.63;;;;;;;;;;10403469;28;20704;-70
2021/06/30 12:16:55;;;;;;;2.00;0.60;;;;;;;;;;10404046;28;20240;-72
2021/06/30 12:21:59;;;;;;;0.77;0.60;;;;;;;;;;10398785;28;20210;-71
2021/06/30 12:27:07;;;;;;;1.57;0.60;;;;;;;;;;10403573;28;20204;-72
2021/06/30 12:32:11;;;;;;;0.60;0.50;;;;;;;;;;10403539;28;20218;-72
2021/06/30 12:37:22;;;;;;;1.77;0.70;;;;;;;;;;10401770;28;20256;-73
2021/06/30 12:42:40;;;;;;;2.00;1.00;;;;;;;;;;10404715;28;20333;-72
2021/06/30 12:47:53;;;;;;;3.77;0.80;;;;;;;;;;10408073;28;20193;-71
2021/06/30 12:53:02;;;;;;;1.63;1.00;;;;;;;;;;10391225;28;20239;-72
2021/06/30 12:58:05;;;;;;;2.57;0.93;;;;;;;;;;10389322;28;20198;-74
2021/06/30 13:03:17;;;;;;;3.07;1.40;;;;;;;;;;10375272;28;20249;-71
2021/06/30 13:08:29;;;;;;;2.50;1.40;;;;;;;;;;10383020;28;20526;-72
2021/06/30 13:13:32;;;;;;;2.90;1.23;;;;;;;;;;10401141;28;20213;-72
2021/06/30 13:18:41;;;;;;;1.73;0.90;;;;;;;;;;10399774;28;20745;-72
2021/06/30 13:23:51;;;;;;;2.63;1.37;;;;;;;;;;10398733;28;20222;-72
2021/06/30 13:29:22;;;;;;;3.03;1.40;;;;;;;;;;10392173;28;20197;-72
2021/06/30 13:34:25;;;;;;;3.00;1.60;;;;;;;;;;10402344;28;20580;-73
2021/06/30 13:39:29;;;;;;;3.67;1.30;;;;;;;;;;10402171;28;20241;-72
2021/06/30 13:44:32;;;;;;;2.70;1.30;;;;;;;;;;10403019;28;20220;-73
2021/06/30 13:49:35;;;;;;;2.50;0.90;;;;;;;;;;10406715;28;20217;-73
2021/06/30 13:54:38;;;;;;;1.80;1.00;;;;;;;;;;10399832;28;20208;-73
2021/06/30 13:59:41;;;;;;;2.13;1.00;;;;;;;;;;10373123;28;20205;-73
2021/06/30 14:04:44;;;;;;;2.47;1.37;;;;;;;;;;10402107;28;20483;-74
2021/06/30 14:09:48;;;;;;;2.10;1.10;;;;;;;;;;10399587;28;20290;-73
2021/06/30 14:14:50;;;;;;;1.53;1.00;;;;;;;;;;10396250;28;20277;-73
2021/06/30 14:19:53;;;;;;;1.47;0.87;;;;;;;;;;10392105;28;20325;-73
2021/06/30 14:24:57;;;;;;;2.73;1.00;;;;;;;;;;10401530;28;20244;-74
2021/06/30 14:30:06;;;;;;;1.10;0.80;;;;;;;;;;10412360;28;20220;-74
2021/06/30 14:35:10;;;;;;;3.03;0.90;;;;;;;;;;10421258;28;20221;-74
2021/06/30 14:40:16;;;;;;;1.03;0.57;;;;;;;;;;10407765;28;20268;-74
2021/06/30 14:45:20;;;;;;;1.80;1.00;;;;;;;;;;10397719;28;20851;-74
2021/06/30 14:50:23;;;;;;;0.73;0.73;;;;;;;;;;10405821;28;20205;-74
2021/06/30 14:55:29;;;;;;;0.87;0.80;;;;;;;;;;10404331;28;20190;-74
2021/06/30 15:00:31;;;;;;;1.57;0.80;;;;;;;;;;10418762;28;20274;-72
2021/06/30 15:05:34;;;;;;;1.77;0.90;;;;;;;;;;10409528;28;20240;-74
2021/06/30 15:10:38;;;;;;;1.53;0.83;;;;;;;;;;10410133;28;20670;-73
2021/06/30 15:15:41;;;;;;;1.40;0.97;;;;;;;;;;10403074;28;20236;-74
2021/06/30 15:20:43;;;;;;;3.60;0.93;;;;;;;;;;10405402;28;20282;-73
2021/06/30 15:25:47;;;;;;;1.77;0.90;;;;;;;;;;10419012;28;20769;-75
2021/06/30 15:30:50;;;;;;;1.73;1.00;;;;;;;;;;10404277;28;20266;-75
2021/06/30 15:35:53;;;;;;;1.23;0.93;;;;;;;;;;10405232;28;20190;-74
2021/06/30 15:40:57;;;;;;;1.07;0.90;;;;;;;;;;10385238;28;20241;-72
2021/06/30 15:45:59;;;;;;;0.87;0.80;;;;;;;;;;10394578;28;20620;-72
2021/06/30 15:51:02;;;;;;;2.00;0.80;;;;;;;;;;10409424;28;20224;-75
2021/06/30 15:56:07;;;;;;;2.03;1.00;;;;;;;;;;10420934;28;20186;-74
2021/06/30 16:01:09;;;;;;;1.53;1.30;;;;;;;;;;10414618;28;20264;-75
2021/06/30 16:06:12;;;;;;;1.87;1.10;;;;;;;;;;10423727;28;20988;-76
2021/06/30 16:11:16;;;;;;;1.83;1.20;;;;;;;;;;10395041;28;20630;-76
2021/06/30 16:16:19;;;;;;;1.10;1.00;;;;;;;;;;10410483;28;20285;-74
2021/06/30 16:21:33;;;;;;;3.60;1.93;;;;;;;;;;10412132;28;20296;-73
2021/06/30 16:26:39;;;;;;;1.93;0.90;;;;;;;;;;10410719;28;20206;-73
2021/06/30 16:31:42;;;;;;;1.27;0.80;;;;;;;;;;10398685;28;20220;-74
2021/06/30 16:36:45;;;;;;;2.87;1.00;;;;;;;;;;10420036;28;20186;-74
2021/06/30 16:41:49;;;;;;;2.17;1.30;;;;;;;;;;10419580;28;20217;-71
2021/06/30 16:46:52;;;;;;;2.17;1.40;;;;;;;;;;10421289;28;20248;-74
2021/06/30 16:51:54;;;;;;;1.13;1.00;;;;;;;;;;10416685;28;20656;-72
2021/06/30 16:56:58;;;;;;;2.47;1.17;;;;;;;;;;10411199;28;20181;-73
2021/06/30 17:02:03;;;;;;;1.73;1.17;;;;;;;;;;10397310;28;20222;-73
2021/06/30 17:07:05;;;;;;;3.10;1.40;;;;;;;;;;10417696;28;20221;-73
2021/06/30 17:12:10;;;;;;;3.17;1.40;;;;;;;;;;10413783;28;20241;-74
2021/06/30 17:17:13;;;;;;;4.53;2.00;;;;;;;;;;10421615;28;20732;-72
2021/06/30 17:22:15;;;;;;;2.53;1.23;;;;;;;;;;10417310;28;20369;-73
2021/06/30 17:27:19;;;;;;;1.70;1.00;;;;;;;;;;10418344;28;20189;-72
2021/06/30 17:32:22;;;;;;;3.63;1.60;;;;;;;;;;10414875;28;20213;-72
2021/06/30 17:37:25;;;;;;;5.37;2.77;;;;;;;;;;10411293;28;20194;-73
2021/06/30 17:42:29;;;;;;;3.57;1.30;;;;;;;;;;10407796;28;20218;-72
2021/06/30 17:47:32;;;;;;;2.63;1.43;;;;;;;;;;10419769;28;20265;-73
2021/06/30 17:52:35;;;;;;;4.77;1.70;;;;;;;;;;10407870;28;20610;-74
2021/06/30 17:57:40;;;;;;;5.50;2.17;;;;;;;;;;10404697;28;20204;-74
2021/06/30 18:02:43;;;;;;;7.20;3.40;;;;;;;;;;10411623;28;20213;-75
2021/06/30 18:07:46;;;;;;;3.13;1.40;;;;;;;;;;10410258;28;20509;-76
2021/06/30 18:12:50;;;;;;;3.13;1.60;;;;;;;;;;10395479;28;20609;-75
2021/06/30 18:17:54;;;;;;;3.13;1.50;;;;;;;;;;10428292;28;20680;-75
2021/06/30 18:22:57;;;;;;;2.30;1.40;;;;;;;;;;10426083;28;20221;-75
2021/06/30 18:28:01;;;;;;;3.93;1.80;;;;;;;;;;10427245;28;20281;-72
2021/06/30 18:33:04;;;;;;;2.60;1.50;;;;;;;;;;10428485;28;20581;-75
2021/06/30 18:38:06;;;;;;;3.60;1.40;;;;;;;;;;10418959;28;20666;-74
2021/06/30 18:43:10;;;;;;;2.60;1.37;;;;;;;;;;10411548;28;20209;-74
2021/06/30 18:48:13;;;;;;;3.47;1.50;;;;;;;;;;10400303;28;20198;-73
2021/06/30 18:53:15;;;;;;;3.50;1.70;;;;;;;;;;10403744;28;20284;-73
2021/06/30 18:58:19;;;;;;;8.97;4.53;;;;;;;;;;10411269;28;20194;-73
2021/06/30 19:03:25;;;;;;;3.13;1.60;;;;;;;;;;10407644;28;20642;-73
2021/06/30 19:08:31;;;;;;;4.03;1.50;;;;;;;;;;10411631;28;20683;-72
2021/06/30 19:13:35;;;;;;;2.07;1.10;;;;;;;;;;10406369;28;20292;-74
2021/06/30 19:18:38;;;;;;;4.20;1.73;;;;;;;;;;10405360;28;20288;-74
2021/06/30 19:23:41;;;;;;;4.10;1.67;;;;;;;;;;10395774;28;20214;-72
2021/06/30 19:28:45;;;;;;;4.63;2.13;;;;;;;;;;10403191;28;20666;-73
2021/06/30 19:33:48;;;;;;;6.57;2.23;;;;;;;;;;10408992;28;20296;-72
2021/06/30 19:38:51;;;;;;;5.10;1.70;;;;;;;;;;10406514;28;20248;-73
2021/06/30 19:43:55;;;;;;;3.07;1.53;;;;;;;;;;10414385;28;20228;-73
2021/06/30 19:48:57;;;;;;;5.27;2.00;;;;;;;;;;10419665;28;20888;-73
2021/06/30 19:54:00;;;;;;;4.77;2.17;;;;;;;;;;10407984;28;20194;-73
2021/06/30 19:59:04;;;;;;;4.33;1.77;;;;;;;;;;10415993;28;20612;-74
2021/06/30 20:04:07;;;;;;;3.27;1.60;;;;;;;;;;10424633;28;20232;-72
2021/06/30 20:09:10;;;;;;;4.97;1.77;;;;;;;;;;10419206;28;20193;-73
2021/06/30 20:14:14;;;;;;;3.30;1.67;;;;;;;;;;10415614;28;20248;-73
2021/06/30 20:19:16;;;;;;;3.73;1.57;;;;;;;;;;10419329;28;20260;-74
2021/06/30 20:24:19;;;;;;;2.23;1.30;;;;;;;;;;10409936;28;20244;-74
2021/06/30 20:29:26;;;;;;;3.93;1.73;;;;;;;;;;10407007;28;20237;-74
2021/06/30 20:34:29;;;;;;;6.30;2.60;;;;;;;;;;10406691;28;20190;-75
2021/06/30 20:39:32;;;;;;;4.33;1.80;;;;;;;;;;10409824;28;20725;-75
2021/06/30 20:44:40;;;;;;;3.17;1.73;;;;;;;;;;10416920;28;20592;-76
2021/06/30 20:49:43;;;;;;;4.53;1.50;;;;;;;;;;10417044;28;20218;-76
2021/06/30 20:54:45;;;;;;;3.43;1.60;;;;;;;;;;10412307;28;20595;-77
2021/06/30 20:59:50;;;;;;;3.00;1.40;;;;;;;;;;10414248;28;20222;-76
2021/06/30 21:04:53;;;;;;;3.80;1.50;;;;;;;;;;10418449;28;20284;-76
2021/06/30 21:09:55;;;;;;;2.53;1.40;;;;;;;;;;10409070;28;20283;-76
2021/06/30 21:14:59;;;;;;;3.03;1.50;;;;;;;;;;10421321;28;20192;-76
2021/06/30 21:20:02;;;;;;;2.77;1.40;;;;;;;;;;10414617;28;20236;-77
2021/06/30 21:25:05;;;;;;;7.97;5.13;;;;;;;;;;10414642;28;20257;-76
2021/06/30 21:30:10;;;;;;;2.80;1.30;;;;;;;;;;10413722;28;20344;-75
2021/06/30 21:35:13;;;;;;;2.83;1.40;;;;;;;;;;10418996;28;20209;-75
2021/06/30 21:40:20;;;;;;;1.70;1.30;;;;;;;;;;10415547;28;20223;-76
2021/06/30 21:45:24;;;;;;;2.17;1.30;;;;;;;;;;10416710;28;20256;-75
2021/06/30 21:50:26;;;;;;;2.50;1.40;;;;;;;;;;10415262;28;20216;-75
2021/06/30 21:55:29;;;;;;;2.40;1.17;;;;;;;;;;10414903;28;20220;-75
2021/06/30 22:00:34;;;;;;;2.43;1.37;;;;;;;;;;10408147;28;20226;-73
2021/06/30 22:05:36;;;;;;;2.30;1.40;;;;;;;;;;10402695;28;20213;-74
2021/06/30 22:10:39;;;;;;;2.23;1.30;;;;;;;;;;10413034;28;20229;-74
2021/06/30 22:15:43;;;;;;;4.43;1.50;;;;;;;;;;10403091;28;20202;-73
2021/06/30 22:20:47;;;;;;;3.13;1.70;;;;;;;;;;10408588;28;20581;-74
2021/06/30 22:25:50;;;;;;;3.03;1.50;;;;;;;;;;10409394;28;20242;-74
2021/06/30 22:30:54;;;;;;;2.83;1.40;;;;;;;;;;10406295;28;20288;-73
2021/06/30 22:35:57;;;;;;;2.23;1.43;;;;;;;;;;10405914;28;20220;-72
2021/06/30 22:40:59;;;;;;;2.23;1.27;;;;;;;;;;10407209;28;20364;-73
2021/06/30 22:46:03;;;;;;;1.77;1.27;;;;;;;;;;10401282;28;20968;-73
2021/06/30 22:51:06;;;;;;;2.90;1.00;;;;;;;;;;10402278;28;20217;-73
2021/06/30 22:56:09;;;;;;;1.60;1.07;;;;;;;;;;10408934;28;20189;-72
2021/06/30 23:01:13;;;;;;;1.60;0.63;;;;;;;;;;10422949;28;20296;-73
2021/06/30 23:06:16;;;;;;;0.40;0.40;;;;;;;;;;10415129;28;20212;-73
2021/06/30 23:11:18;;;;;;;0.70;0.50;;;;;;;;;;10410663;28;20241;-71
2021/06/30 23:16:22;;;;;;;0.30;0.30;;;;;;;;;;10409845;28;20265;-72
2021/06/30 23:21:25;;;;;;;1.17;0.40;;;;;;;;;;10409608;28;20226;-72
2021/06/30 23:26:27;;;;;;;0.97;0.60;;;;;;;;;;10412936;28;20217;-72
2021/06/30 23:31:31;;;;;;;0.77;0.33;;;;;;;;;;10413714;28;20218;-72
2021/06/30 23:36:34;;;;;;;1.40;0.60;;;;;;;;;;10411676;28;20205;-71
2021/06/30 23:41:38;;;;;;;0.70;0.60;;;;;;;;;;10410835;28;20334;-72
2021/06/30 23:46:42;;;;;;;0.93;0.53;;;;;;;;;;10412204;28;20242;-72
2021/06/30 23:51:45;;;;;;;1.93;0.80;;;;;;;;;;10411369;28;20213;-72
2021/06/30 23:56:48;;;;;;;1.37;0.50;;;;;;;;;;10406380;28;20200;-72
